createdAt,value
2023-01-30T00:01:59.472Z,11.04
2023-01-30T00:04:27.547Z,11.02
2023-01-30T00:06:55.562Z,10.96
2023-01-30T00:09:23.633Z,11.02
2023-01-30T00:11:51.721Z,11.04
2023-01-30T00:14:21.142Z,10.86
2023-01-30T00:16:49.193Z,11.07
2023-01-30T00:19:17.239Z,11.13
2023-01-30T00:21:45.316Z,11.16
2023-01-30T00:24:13.618Z,11.19
2023-01-30T00:26:41.818Z,11.16
2023-01-30T00:29:10.811Z,11.17
2023-01-30T00:31:40.757Z,11.27
2023-01-30T00:34:08.837Z,11.25
2023-01-30T00:36:36.861Z,11.24
2023-01-30T00:39:05.181Z,11.33
2023-01-30T00:41:48.011Z,11.23
2023-01-30T00:44:33.171Z,11.31
2023-01-30T00:47:09.137Z,11.20
2023-01-30T00:49:38.016Z,11.23
2023-01-30T00:52:07.086Z,11.38
2023-01-30T00:54:35.628Z,11.34
2023-01-30T00:57:03.652Z,11.41
2023-01-30T00:59:32.546Z,11.42
2023-01-30T01:02:02.256Z,11.43
2023-01-30T01:04:30.383Z,11.48
2023-01-30T01:06:58.465Z,11.46
2023-01-30T01:09:26.581Z,11.47
2023-01-30T01:11:54.637Z,11.61
2023-01-30T01:14:22.676Z,11.55
2023-01-30T01:16:50.814Z,11.47
2023-01-30T01:19:20.287Z,11.40
2023-01-30T01:21:48.399Z,11.15
2023-01-30T01:24:17.418Z,11.26
2023-01-30T01:26:46.055Z,11.33
2023-01-30T01:29:15.151Z,11.33
2023-01-30T01:31:43.853Z,11.29
2023-01-30T01:34:12.270Z,11.28
2023-01-30T01:36:53.081Z,11.22
2023-01-30T01:39:22.424Z,11.20
2023-01-30T01:41:50.752Z,11.24
2023-01-30T01:44:18.847Z,11.13
2023-01-30T01:46:51.230Z,11.17
2023-01-30T01:49:23.959Z,11.20
2023-01-30T01:51:57.993Z,11.26
2023-01-30T01:54:33.368Z,11.27
2023-01-30T01:57:04.594Z,11.18
2023-01-30T01:59:36.082Z,11.32
2023-01-30T02:02:08.946Z,11.40
2023-01-30T02:04:57.375Z,11.43
2023-01-30T02:07:27.294Z,11.54
2023-01-30T02:09:55.464Z,11.70
2023-01-30T02:12:23.495Z,11.82
2023-01-30T02:14:53.985Z,11.68
2023-01-30T02:17:22.307Z,11.94
2023-01-30T02:19:54.507Z,11.86
2023-01-30T02:22:49.275Z,11.85
2023-01-30T02:25:54.133Z,12.13
2023-01-30T02:28:49.140Z,12.17
2023-01-30T02:31:36.729Z,12.18
2023-01-30T02:34:22.653Z,12.28
2023-01-30T02:37:01.273Z,12.37
2023-01-30T02:39:39.627Z,12.20
2023-01-30T02:42:15.444Z,12.30
2023-01-30T02:44:51.491Z,12.29
2023-01-30T02:47:30.090Z,12.16
2023-01-30T02:50:03.482Z,12.12
2023-01-30T02:52:33.596Z,12.13
2023-01-30T02:55:02.650Z,12.13
2023-01-30T02:57:30.914Z,12.20
2023-01-30T03:00:06.152Z,12.13
2023-01-30T03:03:08.286Z,12.17
2023-01-30T03:05:57.199Z,12.21
2023-01-30T03:08:32.968Z,12.23
2023-01-30T03:11:05.313Z,12.08
2023-01-30T03:13:45.767Z,11.88
2023-01-30T03:16:18.468Z,11.91
2023-01-30T03:18:50.492Z,11.91
2023-01-30T03:21:19.080Z,11.90
2023-01-30T03:23:47.746Z,11.94
2023-01-30T03:26:19.340Z,11.91
2023-01-30T03:28:50.062Z,11.89
2023-01-30T03:31:18.684Z,11.99
2023-01-30T03:33:48.576Z,11.99
2023-01-30T03:36:16.903Z,11.94
2023-01-30T03:38:46.451Z,11.89
2023-01-30T03:41:14.618Z,11.90
2023-01-30T03:43:42.760Z,11.97
2023-01-30T03:46:11.131Z,11.87
2023-01-30T03:48:40.995Z,12.14
2023-01-30T03:51:14.225Z,12.15
2023-01-30T03:53:42.303Z,12.08
2023-01-30T03:56:11.248Z,12.03
2023-01-30T03:58:40.180Z,11.98
2023-01-30T04:01:17.743Z,11.96
2023-01-30T04:03:46.166Z,11.94
2023-01-30T04:06:16.673Z,11.85
2023-01-30T04:08:45.706Z,11.88
2023-01-30T04:11:25.234Z,11.75
2023-01-30T04:13:53.326Z,11.76
2023-01-30T04:16:24.800Z,11.77
2023-01-30T04:19:11.435Z,11.76
2023-01-30T04:21:42.000Z,11.71
2023-01-30T04:24:10.452Z,11.59
2023-01-30T04:26:38.631Z,11.61
2023-01-30T04:29:07.129Z,11.66
2023-01-30T04:31:36.374Z,11.69
2023-01-30T04:34:14.285Z,11.74
2023-01-30T04:36:43.850Z,11.69
2023-01-30T04:39:13.568Z,11.68
2023-01-30T04:41:42.469Z,11.69
2023-01-30T04:44:11.373Z,11.60
2023-01-30T04:46:39.695Z,11.61
2023-01-30T04:49:08.079Z,11.49
2023-01-30T04:51:36.555Z,11.52
2023-01-30T04:54:07.715Z,11.49
2023-01-30T04:56:36.045Z,11.48
2023-01-30T04:59:04.367Z,11.47
2023-01-30T05:01:40.080Z,11.51
2023-01-30T05:04:09.143Z,11.56
2023-01-30T05:06:38.108Z,11.62
2023-01-30T05:09:08.274Z,11.66
2023-01-30T05:11:36.818Z,11.57
2023-01-30T05:14:05.154Z,11.46
2023-01-30T05:16:33.424Z,11.45
2023-01-30T05:19:01.804Z,11.41
2023-01-30T05:21:30.214Z,11.46
2023-01-30T05:23:59.066Z,11.38
2023-01-30T05:26:28.903Z,11.25
2023-01-30T05:28:58.668Z,10.82
2023-01-30T05:31:27.260Z,10.65
2023-01-30T05:33:55.680Z,10.72
2023-01-30T05:36:24.793Z,10.65
2023-01-30T05:38:53.163Z,10.63
2023-01-30T05:41:21.526Z,10.64
2023-01-30T05:43:54.443Z,10.63
2023-01-30T05:46:22.789Z,10.70
2023-01-30T05:48:51.140Z,11.09
2023-01-30T05:51:21.459Z,11.23
2023-01-30T05:53:50.142Z,11.31
2023-01-30T05:56:19.226Z,11.28
2023-01-30T05:58:52.325Z,11.19
2023-01-30T06:01:22.833Z,11.19
2023-01-30T06:03:51.483Z,11.27
2023-01-30T06:06:20.159Z,11.33
2023-01-30T06:08:48.763Z,11.34
2023-01-30T06:11:18.498Z,11.27
2023-01-30T06:13:46.895Z,11.19
2023-01-30T06:16:17.113Z,11.17
2023-01-30T06:18:48.150Z,11.11
2023-01-30T06:21:18.079Z,11.11
2023-01-30T06:23:46.483Z,11.17
2023-01-30T06:26:14.969Z,11.20
2023-01-30T06:28:43.526Z,11.15
2023-01-30T06:31:12.019Z,11.13
2023-01-30T06:33:40.349Z,11.13
2023-01-30T06:36:10.631Z,11.15
2023-01-30T06:38:39.029Z,11.19
2023-01-30T06:41:07.950Z,11.16
2023-01-30T06:43:36.169Z,11.16
2023-01-30T06:46:04.597Z,11.17
2023-01-30T06:48:32.881Z,11.28
2023-01-30T06:51:01.330Z,11.13
2023-01-30T06:53:31.346Z,11.00
2023-01-30T06:56:00.401Z,11.08
2023-01-30T06:58:28.706Z,11.13
2023-01-30T07:00:57.113Z,11.16
2023-01-30T07:03:25.752Z,11.10
2023-01-30T07:05:55.221Z,11.05
2023-01-30T07:08:24.419Z,11.00
2023-01-30T07:10:54.205Z,10.88
2023-01-30T07:13:22.614Z,10.90
2023-01-30T07:15:50.959Z,10.82
2023-01-30T07:18:19.217Z,10.74
2023-01-30T07:20:50.912Z,10.44
2023-01-30T07:23:19.252Z,10.43
2023-01-30T07:25:47.584Z,10.30
2023-01-30T07:28:17.369Z,10.34
2023-01-30T07:30:45.676Z,10.33
2023-01-30T07:33:14.311Z,10.29
2023-01-30T07:35:42.679Z,10.30
2023-01-30T07:38:11.031Z,10.22
2023-01-30T07:40:39.381Z,10.21
2023-01-30T07:43:09.081Z,10.24
2023-01-30T07:45:40.810Z,10.29
2023-01-30T07:48:09.883Z,10.26
2023-01-30T07:50:38.224Z,10.34
2023-01-30T07:53:07.137Z,10.40
2023-01-30T07:55:35.884Z,10.37
2023-01-30T07:58:04.524Z,10.42
2023-01-30T08:00:32.898Z,10.67
2023-01-30T08:03:02.652Z,10.88
2023-01-30T08:05:30.918Z,11.01
2023-01-30T08:08:00.974Z,11.11
2023-01-30T08:10:29.379Z,11.03
2023-01-30T08:12:57.639Z,10.89
2023-01-30T08:15:26.014Z,11.23
2023-01-30T08:17:58.142Z,11.18
2023-01-30T08:20:29.491Z,11.30
2023-01-30T08:23:02.308Z,11.29
2023-01-30T08:25:31.128Z,11.34
2023-01-30T08:28:00.422Z,11.33
2023-01-30T08:30:30.769Z,11.28
2023-01-30T08:32:59.739Z,11.31
2023-01-30T08:35:29.478Z,11.23
2023-01-30T08:37:57.876Z,11.15
2023-01-30T08:40:26.147Z,11.04
2023-01-30T08:42:54.420Z,11.09
2023-01-30T08:45:22.712Z,11.07
2023-01-30T08:47:51.248Z,10.60
2023-01-30T08:50:20.065Z,10.63
2023-01-30T08:52:49.873Z,10.93
2023-01-30T08:55:18.565Z,11.07
2023-01-30T08:57:47.113Z,11.27
2023-01-30T09:00:16.829Z,11.01
2023-01-30T09:02:48.189Z,10.81
2023-01-30T09:05:16.643Z,10.89
2023-01-30T09:07:45.012Z,10.97
2023-01-30T09:10:14.989Z,11.05
2023-01-30T09:12:43.293Z,11.08
2023-01-30T09:15:12.380Z,11.14
2023-01-30T09:17:40.884Z,11.18
2023-01-30T09:20:12.267Z,11.16
2023-01-30T09:22:41.114Z,11.03
2023-01-30T09:25:10.254Z,11.12
2023-01-30T09:27:41.623Z,11.07
2023-01-30T09:30:11.589Z,10.98
2023-01-30T09:32:39.946Z,11.03
2023-01-30T09:35:08.824Z,11.00
2023-01-30T09:37:37.253Z,10.96
2023-01-30T09:40:06.629Z,11.17
2023-01-30T09:43:00.242Z,11.30
2023-01-30T09:45:42.959Z,11.32
2023-01-30T09:48:17.668Z,11.30
2023-01-30T09:51:06.674Z,11.30
2023-01-30T09:53:44.116Z,11.31
2023-01-30T09:56:12.916Z,11.43
2023-01-30T09:58:49.086Z,11.52
2023-01-30T10:01:25.365Z,11.44
2023-01-30T10:04:08.128Z,11.45
2023-01-30T10:06:43.783Z,11.38
2023-01-30T10:09:21.481Z,11.26
2023-01-30T10:12:03.446Z,11.18
2023-01-30T10:15:08.968Z,11.16
2023-01-30T10:17:52.600Z,11.04
2023-01-30T10:20:39.573Z,10.95
2023-01-30T10:23:28.959Z,10.95
2023-01-30T10:26:02.600Z,10.95
2023-01-30T10:28:34.059Z,10.86
2023-01-30T10:31:06.895Z,10.93
2023-01-30T10:33:38.119Z,10.87
2023-01-30T10:36:12.218Z,11.17
2023-01-30T10:38:45.731Z,11.63
2023-01-30T10:41:22.164Z,12.00
2023-01-30T10:43:58.000Z,11.99
2023-01-30T10:46:39.660Z,12.05
2023-01-30T10:49:16.056Z,11.87
2023-01-30T10:51:52.351Z,11.47
2023-01-30T10:54:26.441Z,11.26
2023-01-30T10:57:02.314Z,10.92
2023-01-30T10:59:43.235Z,10.90
2023-01-30T11:02:24.257Z,10.97
2023-01-30T11:04:59.048Z,11.03
2023-01-30T11:07:28.511Z,11.29
2023-01-30T11:09:59.095Z,11.86
2023-01-30T11:12:27.183Z,12.43
2023-01-30T11:14:58.681Z,12.72
2023-01-30T11:17:35.206Z,12.82
2023-01-30T11:20:11.243Z,12.90
2023-01-30T11:22:47.227Z,13.34
2023-01-30T11:25:18.413Z,13.93
2023-01-30T11:27:54.771Z,14.42
2023-01-30T11:30:28.626Z,14.50
2023-01-30T11:33:13.325Z,14.12
2023-01-30T11:35:54.716Z,13.54
2023-01-30T11:38:25.370Z,13.10
2023-01-30T11:41:04.955Z,12.76
2023-01-30T11:43:34.544Z,12.63
2023-01-30T11:46:03.161Z,12.56
2023-01-30T11:49:11.038Z,12.81
2023-01-30T11:51:25.357Z,13.19
2023-01-30T11:53:57.746Z,13.82
2023-01-30T11:56:32.433Z,14.05
2023-01-30T11:59:03.676Z,14.00
2023-01-30T12:01:34.060Z,14.11
2023-01-30T12:04:07.803Z,13.89
2023-01-30T12:06:38.038Z,13.94
2023-01-30T12:09:06.577Z,13.59
2023-01-30T12:11:45.519Z,13.08
2023-01-30T12:14:24.245Z,12.79
2023-01-30T12:16:59.186Z,12.52
2023-01-30T12:19:47.831Z,12.58
2023-01-30T12:22:24.250Z,12.63
2023-01-30T12:25:01.466Z,12.79
2023-01-30T12:30:32.575Z,13.32
2023-01-30T12:33:06.500Z,13.22
2023-01-30T12:36:01.112Z,13.07
2023-01-30T12:38:51.426Z,13.17
2023-01-30T12:41:31.591Z,13.29
2023-01-30T12:44:19.647Z,13.36
2023-01-30T12:47:03.683Z,13.38
2023-01-30T12:49:49.547Z,13.30
2023-01-30T12:52:43.490Z,13.35
2023-01-30T12:55:23.092Z,13.24
2023-01-30T12:57:55.399Z,13.22
2023-01-30T13:00:37.731Z,12.90
2023-01-30T13:03:22.480Z,12.94
2023-01-30T13:05:56.140Z,13.11
2023-01-30T13:08:42.516Z,13.20
2023-01-30T13:11:28.984Z,13.25
2023-01-30T13:14:04.334Z,13.31
2023-01-30T13:16:41.204Z,13.39
2023-01-30T13:19:19.265Z,13.29
2023-01-30T13:21:57.458Z,13.40
2023-01-30T13:24:37.539Z,13.43
2023-01-30T13:27:09.538Z,13.49
2023-01-30T13:29:40.064Z,13.58
2023-01-30T13:32:19.999Z,13.63
2023-01-30T13:34:49.534Z,13.73
2023-01-30T13:37:18.896Z,13.60
2023-01-30T13:39:52.607Z,13.71
2023-01-30T13:42:31.513Z,13.88
2023-01-30T13:45:00.904Z,14.03
2023-01-30T13:47:44.226Z,14.13
2023-01-30T13:50:33.551Z,14.40
2023-01-30T13:53:06.428Z,14.52
2023-01-30T13:55:42.958Z,14.80
2023-01-30T13:58:18.859Z,14.91
2023-01-30T14:00:55.039Z,15.06
2023-01-30T14:03:31.841Z,15.03
2023-01-30T14:06:08.191Z,15.21
2023-01-30T14:08:41.619Z,15.26
2023-01-30T14:11:39.332Z,15.28
2023-01-30T14:14:26.634Z,15.22
2023-01-30T14:16:57.033Z,15.44
2023-01-30T14:20:10.027Z,15.44
2023-01-30T14:22:51.657Z,15.49
2023-01-30T14:25:47.802Z,15.32
2023-01-30T14:28:53.578Z,14.81
2023-01-30T14:31:52.626Z,14.41
2023-01-30T14:34:49.182Z,14.40
2023-01-30T14:37:57.756Z,14.44
2023-01-30T14:40:50.830Z,14.12
2023-01-30T14:43:36.985Z,13.71
2023-01-30T14:46:09.062Z,13.55
2023-01-30T14:48:44.444Z,12.93
2023-01-30T14:51:22.075Z,12.79
2023-01-30T14:53:58.515Z,12.64
2023-01-30T14:56:43.677Z,12.71
2023-01-30T14:59:21.516Z,12.90
2023-01-30T15:02:04.171Z,12.80
2023-01-30T15:04:34.374Z,12.82
2023-01-30T15:07:10.387Z,12.75
2023-01-30T15:09:40.112Z,12.59
2023-01-30T15:12:33.642Z,12.50
2023-01-30T15:15:10.131Z,12.47
2023-01-30T15:17:58.271Z,12.44
2023-01-30T15:20:40.352Z,12.29
2023-01-30T15:23:40.074Z,12.13
2023-01-30T15:26:21.744Z,12.23
2023-01-30T15:29:00.136Z,12.23
2023-01-30T15:31:28.235Z,12.17
2023-01-30T15:33:57.920Z,12.10
2023-01-30T15:36:29.200Z,12.12
2023-01-30T15:39:02.015Z,12.19
2023-01-30T15:41:32.487Z,12.15
2023-01-30T15:44:25.798Z,12.13
2023-01-30T15:47:02.087Z,12.10
2023-01-30T15:49:55.359Z,12.02
2023-01-30T15:52:29.013Z,12.00
2023-01-30T15:55:02.110Z,12.07
2023-01-30T15:57:34.072Z,12.08
2023-01-30T16:00:03.158Z,12.13
2023-01-30T16:02:44.301Z,11.99
2023-01-30T16:05:19.183Z,11.94
2023-01-30T16:07:49.640Z,12.06
2023-01-30T16:10:19.953Z,12.14
2023-01-30T16:12:49.440Z,12.10
2023-01-30T16:15:20.165Z,12.11
2023-01-30T16:17:59.096Z,11.90
2023-01-30T16:20:28.716Z,11.90
2023-01-30T16:22:56.996Z,11.81
2023-01-30T16:25:29.839Z,11.79
2023-01-30T16:27:58.638Z,11.78
2023-01-30T16:30:29.598Z,11.54
2023-01-30T16:32:58.386Z,11.53
2023-01-30T16:35:34.238Z,11.58
2023-01-30T16:38:05.067Z,11.52
2023-01-30T16:40:44.812Z,11.58
2023-01-30T16:43:21.679Z,11.59
2023-01-30T16:46:22.670Z,11.87
2023-01-30T16:48:51.962Z,12.02
2023-01-30T16:51:24.692Z,11.97
2023-01-30T16:54:00.165Z,12.01
2023-01-30T16:56:30.338Z,11.99
2023-01-30T16:59:00.369Z,12.02
2023-01-30T17:01:46.478Z,12.00
2023-01-30T17:04:21.453Z,12.01
2023-01-30T17:06:57.794Z,12.00
2023-01-30T17:09:45.399Z,12.11
2023-01-30T17:12:44.250Z,12.12
2023-01-30T17:15:30.203Z,11.97
2023-01-30T17:17:58.364Z,12.03
2023-01-30T17:20:38.551Z,12.04
2023-01-30T17:23:10.549Z,11.98
2023-01-30T17:25:42.564Z,11.96
2023-01-30T17:28:16.853Z,11.96
2023-01-30T17:30:44.964Z,11.92
2023-01-30T17:33:13.058Z,11.98
2023-01-30T17:35:41.273Z,11.98
2023-01-30T17:38:12.512Z,12.00
2023-01-30T17:40:40.927Z,12.00
2023-01-30T17:43:09.643Z,11.97
2023-01-30T17:45:37.998Z,11.62
2023-01-30T17:48:06.798Z,11.81
2023-01-30T17:50:36.604Z,11.93
2023-01-30T17:53:04.980Z,11.93
2023-01-30T17:55:36.352Z,12.05
2023-01-30T17:58:05.276Z,12.10
2023-01-30T18:00:33.452Z,12.06
2023-01-30T18:03:01.612Z,12.03
2023-01-30T18:05:29.706Z,11.91
2023-01-30T18:07:57.750Z,11.88
2023-01-30T18:10:26.017Z,11.82
2023-01-30T18:12:55.380Z,11.78
2023-01-30T18:15:23.464Z,11.75
2023-01-30T18:17:54.914Z,11.68
2023-01-30T18:20:24.852Z,11.58
2023-01-30T18:22:53.128Z,11.47
2023-01-30T18:25:21.414Z,11.46
2023-01-30T18:27:49.691Z,11.46
2023-01-30T18:30:19.930Z,11.49
2023-01-30T18:32:53.804Z,11.52
2023-01-30T18:35:22.944Z,11.46
2023-01-30T18:37:51.214Z,11.43
2023-01-30T18:40:20.055Z,11.40
2023-01-30T18:42:48.532Z,11.34
2023-01-30T18:45:18.151Z,11.30
2023-01-30T18:47:46.255Z,11.05
2023-01-30T18:50:14.360Z,10.92
2023-01-30T18:52:42.414Z,10.95
2023-01-30T18:55:11.056Z,10.89
2023-01-30T18:57:39.082Z,10.92
2023-01-30T19:00:08.474Z,10.94
2023-01-30T19:02:37.977Z,10.90
2023-01-30T19:05:06.675Z,10.96
2023-01-30T19:07:36.424Z,11.04
2023-01-30T19:10:04.908Z,11.01
2023-01-30T19:12:50.420Z,11.02
2023-01-30T19:15:18.497Z,10.97
2023-01-30T19:17:48.149Z,10.95
2023-01-30T19:20:16.500Z,11.00
2023-01-30T19:22:44.582Z,11.05
2023-01-30T19:25:12.599Z,11.08
2023-01-30T19:27:40.772Z,11.11
2023-01-30T19:30:10.156Z,11.19
2023-01-30T19:32:38.176Z,11.17
2023-01-30T19:35:08.523Z,11.09
2023-01-30T19:37:38.422Z,11.10
2023-01-30T19:40:09.727Z,11.13
2023-01-30T19:42:40.380Z,11.15
2023-01-30T19:45:13.552Z,11.15
2023-01-30T19:47:41.539Z,11.12
2023-01-30T19:50:12.531Z,11.11
2023-01-30T19:52:40.833Z,11.02
2023-01-30T19:55:09.679Z,11.01
2023-01-30T19:57:37.702Z,10.99
2023-01-30T20:00:06.648Z,10.93
2023-01-30T20:02:34.725Z,10.92
2023-01-30T20:05:03.256Z,10.83
2023-01-30T20:07:35.635Z,10.85
2023-01-30T20:10:03.803Z,10.88
2023-01-30T20:12:34.918Z,10.80
2023-01-30T20:15:04.811Z,10.82
2023-01-30T20:17:33.351Z,10.87
2023-01-30T20:20:01.466Z,10.89
2023-01-30T20:22:29.578Z,10.84
2023-01-30T20:24:58.995Z,10.88
2023-01-30T20:27:27.154Z,10.90
2023-01-30T20:29:55.247Z,10.89
2023-01-30T20:32:23.261Z,10.84
2023-01-30T20:34:51.294Z,10.88
2023-01-30T20:37:19.387Z,10.84
2023-01-30T20:39:47.532Z,10.85
2023-01-30T20:42:18.699Z,10.87
2023-01-30T20:44:46.707Z,10.85
2023-01-30T20:47:14.755Z,10.87
2023-01-30T20:49:42.840Z,10.90
2023-01-30T20:52:10.852Z,10.94
2023-01-30T20:54:39.137Z,10.99
2023-01-30T20:57:07.602Z,11.03
2023-01-30T20:59:37.254Z,11.07
2023-01-30T21:02:05.323Z,10.95
2023-01-30T21:04:33.380Z,10.86
2023-01-30T21:07:01.774Z,10.81
2023-01-30T21:09:29.840Z,10.75
2023-01-30T21:11:57.881Z,10.70
2023-01-30T21:14:26.741Z,10.67
2023-01-30T21:16:56.253Z,10.71
2023-01-30T21:19:24.569Z,10.69
2023-01-30T21:21:55.101Z,10.67
2023-01-30T21:24:25.179Z,10.64
2023-01-30T21:26:53.928Z,10.62
2023-01-30T21:29:25.392Z,10.64
2023-01-30T21:31:54.092Z,10.43
2023-01-30T21:34:23.735Z,10.54
2023-01-30T21:37:05.783Z,10.54
2023-01-30T21:39:52.596Z,10.51
2023-01-30T21:42:38.311Z,10.45
2023-01-30T21:45:07.645Z,10.41
2023-01-30T21:47:35.817Z,10.42
2023-01-30T21:50:05.772Z,10.30
2023-01-30T21:52:34.140Z,10.25
2023-01-30T21:55:02.182Z,10.20
2023-01-30T21:57:30.287Z,10.14
2023-01-30T21:59:58.337Z,10.09
2023-01-30T22:02:26.365Z,10.07
2023-01-30T22:04:54.829Z,10.04
2023-01-30T22:07:24.284Z,10.06
2023-01-30T22:09:52.307Z,10.03
2023-01-30T22:12:20.354Z,10.05
2023-01-30T22:14:48.363Z,10.00
2023-01-30T22:17:16.388Z,9.97
2023-01-30T22:19:44.881Z,10.01
2023-01-30T22:22:12.936Z,9.96
2023-01-30T22:24:42.374Z,9.99
2023-01-30T22:27:10.414Z,9.97
2023-01-30T22:29:38.553Z,9.95
2023-01-30T22:32:06.689Z,10.00
2023-01-30T22:34:36.038Z,10.03
2023-01-30T22:37:04.178Z,10.07
2023-01-30T22:39:32.239Z,10.12
2023-01-30T22:42:01.639Z,10.13
2023-01-30T22:44:29.653Z,10.16
2023-01-30T22:46:57.984Z,10.22
2023-01-30T22:49:27.840Z,10.23
2023-01-30T22:51:59.251Z,10.26
2023-01-30T22:54:27.647Z,10.28
2023-01-30T22:56:55.965Z,10.34
2023-01-30T22:59:25.631Z,10.36
2023-01-30T23:01:54.105Z,10.42
2023-01-30T23:04:23.736Z,10.48
2023-01-30T23:06:53.122Z,10.46
2023-01-30T23:09:23.452Z,10.45
2023-01-30T23:12:07.691Z,10.49
2023-01-30T23:14:38.204Z,10.46
2023-01-30T23:17:27.428Z,10.45
2023-01-30T23:19:55.353Z,10.44
2023-01-30T23:22:24.198Z,10.45
2023-01-30T23:24:52.683Z,10.55
2023-01-30T23:27:21.323Z,10.46
2023-01-30T23:29:50.967Z,10.33
2023-01-30T23:32:20.227Z,10.37
2023-01-30T23:34:48.886Z,10.35
2023-01-30T23:37:17.359Z,10.24
2023-01-30T23:39:46.223Z,10.20
2023-01-30T23:42:14.537Z,10.13
2023-01-30T23:44:42.850Z,10.00
2023-01-30T23:47:12.533Z,9.94
2023-01-30T23:49:40.847Z,9.95
2023-01-30T23:52:10.386Z,9.94
2023-01-30T23:54:38.740Z,9.94
2023-01-30T23:57:07.031Z,9.95
2023-01-30T23:59:35.232Z,9.96
